Calabasas Hills, California
Current Conditions -  °F | °C
As of 11:51 PM on Thursday 23 Oct 2014 (Local Time) from KVNY Reporting Station
Clear Clear  
Wind Chill: 63°   Ceiling: Unl
Heat Index: 63°   Visibility: 10mi
Dew Point: 39°   Wind: 0mph
Humidity: 41%   Direction: NA
Pressure: 29.98"   Gusts: NA
Location:  34.1403°N, 118.762°W
Report Text: KVNY 240651Z 00000KT 10SM CLR 17/04 A2998 RMK AO2 SLP142 T01720039
Loading
Personal Weather Stations






























Interactive Weather Map
Tropical Storm Tracking
New forecast layout! Learn more

10-Day Weather Forecast

Advertisements
Track Severe Weather on mobile